Time;durP1;ratioP1;P1;durP2;ratioP2;P2;SDS_P1;SDS_P2;PMS_P1;PMS_P2;Temp;Humidity;BMP_temperature;BMP_pressure;BME280_temperature;BME280_humidity;BME280_pressure;Samples;Min_cycle;Max_cycle;Signal;HPM_P1;HPM_P2
2023/05/06 00:02:18;;;;;;;9.80;4.13;;;9.70;99.90;;;;;;4824798;29;20584;-57
2023/05/06 00:04:46;;;;;;;7.10;4.03;;;9.70;99.90;;;;;;4824655;29;20732;-56
2023/05/06 00:07:15;;;;;;;5.87;4.17;;;9.70;99.90;;;;;;4789071;29;20260;-57
2023/05/06 00:09:43;;;;;;;6.37;4.10;;;9.70;99.90;;;;;;4799097;29;20239;-57
2023/05/06 00:12:11;;;;;;;7.90;4.87;;;9.80;99.90;;;;;;4789816;29;20243;-57
2023/05/06 00:14:39;;;;;;;7.83;4.20;;;9.80;99.90;;;;;;4816882;29;20572;-57
2023/05/06 00:17:07;;;;;;;7.43;4.60;;;9.70;99.90;;;;;;4807409;29;20233;-57
2023/05/06 00:19:37;;;;;;;10.53;4.53;;;9.60;99.90;;;;;;4814588;29;20725;-57
2023/05/06 00:22:05;;;;;;;7.87;4.73;;;9.60;99.90;;;;;;4789358;29;20602;-57
2023/05/06 00:24:33;;;;;;;8.27;4.60;;;9.70;99.90;;;;;;4802917;29;20234;-55
2023/05/06 00:27:01;;;;;;;8.67;4.47;;;9.60;99.90;;;;;;4806757;29;20238;-57
2023/05/06 00:29:29;;;;;;;7.10;4.73;;;9.60;99.90;;;;;;4806753;29;20230;-57
2023/05/06 00:31:57;;;;;;;9.30;4.87;;;9.60;99.90;;;;;;4806515;29;20337;-57
2023/05/06 00:34:25;;;;;;;9.00;4.50;;;9.60;99.90;;;;;;4807014;29;20259;-57
2023/05/06 00:36:55;;;;;;;7.73;4.53;;;9.70;99.90;;;;;;4806761;29;20226;-57
2023/05/06 00:39:25;;;;;;;7.63;5.07;;;9.70;99.90;;;;;;4809244;29;20328;-57
2023/05/06 00:41:53;;;;;;;8.37;5.03;;;9.70;99.90;;;;;;4806786;29;20716;-57
2023/05/06 00:44:21;;;;;;;10.43;4.73;;;9.60;99.90;;;;;;4814839;29;20225;-57
2023/05/06 00:46:49;;;;;;;9.00;4.90;;;9.60;99.90;;;;;;4808316;29;20260;-57
2023/05/06 00:49:18;;;;;;;10.47;4.77;;;9.60;99.90;;;;;;4814270;29;20231;-57
2023/05/06 00:51:46;;;;;;;7.73;4.80;;;9.60;99.90;;;;;;4821300;29;20375;-58
2023/05/06 00:54:16;;;;;;;8.37;4.77;;;9.60;99.90;;;;;;4812672;29;20228;-57
2023/05/06 00:56:44;;;;;;;9.77;5.13;;;9.60;99.90;;;;;;4806248;29;20224;-56
2023/05/06 00:59:12;;;;;;;7.07;4.60;;;9.60;99.90;;;;;;4806525;29;20690;-57
2023/05/06 01:01:40;;;;;;;8.33;5.50;;;9.60;99.90;;;;;;4805971;29;20649;-57
2023/05/06 01:04:09;;;;;;;8.33;5.30;;;9.70;99.90;;;;;;4806343;29;20235;-57
2023/05/06 01:06:45;;;;;;;8.83;5.20;;;9.60;99.90;;;;;;4804905;29;20261;-57
2023/05/06 01:09:20;;;;;;;9.70;5.33;;;9.60;99.90;;;;;;4805085;29;20241;-57
2023/05/06 01:11:53;;;;;;;8.30;5.20;;;9.60;99.90;;;;;;4806147;29;20238;-56
2023/05/06 01:14:28;;;;;;;6.73;5.13;;;9.60;99.90;;;;;;4812672;29;20246;-57
2023/05/06 01:17:03;;;;;;;9.80;5.43;;;9.50;99.90;;;;;;4823110;29;20238;-57
2023/05/06 01:19:40;;;;;;;8.17;5.30;;;9.50;99.90;;;;;;4813368;29;20318;-55
2023/05/06 01:22:11;;;;;;;9.77;5.60;;;9.50;99.90;;;;;;4788107;29;20685;-57
2023/05/06 01:24:42;;;;;;;9.67;5.57;;;9.50;99.90;;;;;;4814888;29;20712;-57
2023/05/06 01:27:11;;;;;;;7.50;5.37;;;9.40;99.90;;;;;;4804681;29;20245;-57
2023/05/06 01:29:42;;;;;;;9.73;5.30;;;9.50;99.90;;;;;;4806050;29;20235;-56
2023/05/06 01:32:36;;;;;;;8.07;5.17;;;9.50;99.90;;;;;;4805690;29;20251;-57
2023/05/06 01:35:15;;;;;;;8.30;5.50;;;9.50;99.90;;;;;;4804723;29;20358;-57
2023/05/06 01:37:50;;;;;;;9.90;5.47;;;9.60;99.90;;;;;;4804420;29;20231;-57
2023/05/06 01:40:20;;;;;;;8.13;5.77;;;9.50;99.90;;;;;;4804616;29;20233;-57
2023/05/06 01:42:49;;;;;;;8.40;5.27;;;9.60;99.90;;;;;;4806956;29;20233;-56
2023/05/06 01:45:19;;;;;;;11.33;6.00;;;9.50;99.90;;;;;;4816388;29;20239;-57
2023/05/06 01:47:48;;;;;;;8.63;5.40;;;9.50;99.90;;;;;;4818092;29;20776;-58
2023/05/06 01:50:16;;;;;;;10.10;5.67;;;9.50;99.90;;;;;;4816407;29;20232;-57
2023/05/06 01:52:44;;;;;;;9.80;5.80;;;9.50;99.90;;;;;;4821874;29;20251;-57
2023/05/06 01:55:12;;;;;;;7.83;5.33;;;9.50;99.90;;;;;;4805653;29;20230;-57
2023/05/06 01:57:42;;;;;;;9.20;5.60;;;9.50;99.90;;;;;;4805410;29;20254;-57
2023/05/06 02:00:11;;;;;;;10.47;6.07;;;9.40;99.90;;;;;;4805634;29;20238;-56
2023/05/06 02:02:39;;;;;;;11.53;6.33;;;9.40;99.90;;;;;;4804827;29;20229;-56
2023/05/06 02:05:08;;;;;;;8.67;6.07;;;9.40;99.90;;;;;;4804406;29;20316;-57
2023/05/06 02:07:42;;;;;;;9.33;5.90;;;9.50;99.90;;;;;;4804298;29;20238;-57
2023/05/06 02:10:10;;;;;;;6.57;5.80;;;9.40;99.90;;;;;;4805584;29;20265;-57
2023/05/06 02:12:43;;;;;;;8.47;5.70;;;9.50;99.90;;;;;;4804615;29;20289;-57
2023/05/06 02:15:12;;;;;;;7.60;5.73;;;9.40;99.90;;;;;;4816041;29;20294;-55
2023/05/06 02:17:40;;;;;;;8.23;5.70;;;9.30;99.90;;;;;;4817779;29;20232;-57
2023/05/06 02:20:09;;;;;;;8.97;5.90;;;9.40;99.90;;;;;;4814820;29;20229;-57
2023/05/06 02:22:37;;;;;;;7.73;5.70;;;9.30;99.90;;;;;;4822453;29;20328;-57
2023/05/06 02:25:07;;;;;;;8.97;5.80;;;9.30;99.90;;;;;;4804873;29;20237;-57
2023/05/06 02:27:35;;;;;;;8.97;5.97;;;9.30;99.90;;;;;;4808791;29;20312;-57
2023/05/06 02:30:06;;;;;;;9.80;6.20;;;9.30;99.90;;;;;;4809011;29;20328;-57
2023/05/06 02:32:34;;;;;;;8.63;5.93;;;9.30;99.90;;;;;;4810831;29;20731;-57
2023/05/06 02:35:03;;;;;;;10.47;6.27;;;9.30;99.90;;;;;;4808941;29;20588;-57
2023/05/06 02:37:31;;;;;;;8.87;6.10;;;9.30;99.90;;;;;;4808733;29;20594;-56
2023/05/06 02:40:01;;;;;;;9.03;5.97;;;9.30;99.90;;;;;;4808989;29;20778;-57
2023/05/06 02:42:33;;;;;;;7.03;5.97;;;9.30;99.90;;;;;;4806779;29;20237;-57
2023/05/06 02:45:02;;;;;;;9.43;6.27;;;9.30;99.90;;;;;;4819240;29;20232;-57
2023/05/06 02:47:33;;;;;;;8.57;5.97;;;9.40;99.90;;;;;;4821610;29;20725;-57
2023/05/06 02:50:02;;;;;;;7.73;6.20;;;9.30;99.90;;;;;;4817980;29;20288;-57
2023/05/06 02:52:32;;;;;;;9.50;6.40;;;9.30;99.90;;;;;;4826762;29;20245;-56
2023/05/06 02:55:00;;;;;;;8.67;6.30;;;9.30;99.90;;;;;;4807943;29;20234;-57
2023/05/06 02:57:28;;;;;;;9.90;6.50;;;9.30;99.90;;;;;;4819236;29;20248;-58
2023/05/06 02:59:56;;;;;;;10.37;6.27;;;9.30;99.90;;;;;;4790480;29;20243;-58
2023/05/06 03:02:24;;;;;;;9.30;6.90;;;9.30;99.90;;;;;;4793779;29;20319;-55
2023/05/06 03:04:54;;;;;;;11.50;7.23;;;9.30;99.90;;;;;;4808441;29;20272;-57
2023/05/06 03:07:22;;;;;;;9.53;6.90;;;9.30;99.90;;;;;;4807211;29;20328;-57
2023/05/06 03:09:50;;;;;;;12.17;7.97;;;9.30;99.90;;;;;;4807049;29;20267;-56
2023/05/06 03:12:18;;;;;;;9.07;7.90;;;9.30;99.90;;;;;;4808299;29;20237;-57
2023/05/06 03:14:47;;;;;;;11.20;7.43;;;9.30;99.90;;;;;;4814549;29;20230;-57
2023/05/06 03:17:15;;;;;;;8.33;7.30;;;9.30;99.90;;;;;;4827903;29;20256;-57
2023/05/06 03:19:43;;;;;;;9.50;7.37;;;9.30;99.90;;;;;;4815895;29;20250;-57
2023/05/06 03:22:14;;;;;;;11.90;8.03;;;9.30;99.90;;;;;;4840291;29;20233;-57
2023/05/06 03:24:44;;;;;;;10.17;8.03;;;9.30;99.90;;;;;;4809025;29;20237;-57
2023/05/06 03:27:12;;;;;;;10.83;8.17;;;9.30;99.90;;;;;;4806804;29;20234;-57
2023/05/06 03:29:42;;;;;;;11.97;8.27;;;9.40;99.90;;;;;;4806582;29;20656;-57
2023/05/06 03:32:11;;;;;;;9.33;7.47;;;9.30;99.90;;;;;;4806408;29;20245;-57
2023/05/06 03:34:42;;;;;;;12.57;8.13;;;9.30;99.90;;;;;;4806785;29;20237;-57
2023/05/06 03:37:16;;;;;;;9.67;7.50;;;9.30;99.90;;;;;;4820705;29;20229;-57
2023/05/06 03:39:48;;;;;;;10.57;8.33;;;9.40;99.90;;;;;;4806609;29;20239;-57
2023/05/06 03:42:18;;;;;;;8.87;7.97;;;9.40;99.90;;;;;;4806652;29;20722;-57
2023/05/06 03:44:47;;;;;;;9.83;8.73;;;9.40;99.90;;;;;;4828370;29;20231;-57
2023/05/06 03:47:17;;;;;;;9.63;8.00;;;9.30;99.90;;;;;;4836840;29;20244;-57
2023/05/06 03:49:45;;;;;;;11.37;7.97;;;9.40;99.90;;;;;;4814610;29;20323;-57
2023/05/06 03:52:13;;;;;;;10.03;8.87;;;9.50;99.90;;;;;;4825790;29;20764;-56
2023/05/06 03:54:43;;;;;;;11.50;8.60;;;9.40;99.90;;;;;;4808754;29;20736;-56
2023/05/06 03:57:11;;;;;;;11.00;8.20;;;9.40;99.90;;;;;;4806285;29;20233;-57
2023/05/06 03:59:39;;;;;;;10.53;8.70;;;9.40;99.90;;;;;;4806114;29;20224;-57
2023/05/06 04:02:07;;;;;;;9.07;8.17;;;9.40;99.90;;;;;;4805795;29;20333;-57
2023/05/06 04:04:37;;;;;;;11.40;8.93;;;9.50;99.90;;;;;;4806140;29;20243;-57
2023/05/06 04:07:05;;;;;;;10.87;9.33;;;9.50;99.90;;;;;;4807437;29;20234;-57
2023/05/06 04:09:33;;;;;;;10.60;9.07;;;9.40;99.90;;;;;;4807131;29;20249;-55
2023/05/06 04:12:07;;;;;;;11.67;9.60;;;9.50;99.90;;;;;;4806102;29;20238;-57
2023/05/06 04:14:36;;;;;;;10.60;9.50;;;9.40;99.90;;;;;;4813167;29;20777;-57
2023/05/06 04:17:04;;;;;;;12.23;10.97;;;9.50;99.90;;;;;;4809074;29;20724;-58
2023/05/06 04:19:32;;;;;;;11.00;9.77;;;9.50;99.90;;;;;;4814367;29;20221;-56
2023/05/06 04:22:01;;;;;;;12.77;11.00;;;9.60;99.90;;;;;;4824974;29;20689;-57
2023/05/06 04:24:30;;;;;;;12.77;10.67;;;9.50;99.90;;;;;;4810017;29;20237;-57
2023/05/06 04:26:58;;;;;;;11.17;10.07;;;9.50;99.90;;;;;;4805767;29;20238;-57
2023/05/06 04:29:29;;;;;;;12.27;10.43;;;9.60;99.90;;;;;;4805635;29;20242;-57
2023/05/06 04:32:01;;;;;;;13.47;12.07;;;9.70;99.90;;;;;;4820289;29;20242;-57
2023/05/06 04:34:31;;;;;;;14.47;11.67;;;9.60;99.90;;;;;;4800984;29;20281;-56
2023/05/06 04:37:02;;;;;;;12.50;11.07;;;9.70;99.90;;;;;;4823814;29;20233;-57
2023/05/06 04:39:38;;;;;;;13.77;12.07;;;9.90;99.90;;;;;;4823626;29;20227;-58
2023/05/06 04:42:07;;;;;;;13.90;11.73;;;9.90;99.90;;;;;;4816600;29;20641;-57
2023/05/06 04:44:49;;;;;;;14.00;12.60;;;10.00;99.90;;;;;;4807584;29;20232;-57
2023/05/06 04:47:20;;;;;;;12.50;11.30;;;9.80;99.90;;;;;;4817136;29;20272;-57
2023/05/06 04:49:51;;;;;;;13.20;11.90;;;9.80;99.90;;;;;;4812868;29;20763;-56
2023/05/06 04:52:20;;;;;;;12.63;11.43;;;9.80;99.90;;;;;;4815120;29;20602;-57
2023/05/06 04:54:48;;;;;;;13.80;12.33;;;9.90;99.90;;;;;;4800404;29;20257;-57
2023/05/06 04:57:16;;;;;;;13.77;11.77;;;9.80;99.90;;;;;;4787291;29;20231;-57
2023/05/06 04:59:45;;;;;;;15.10;11.67;;;9.80;99.90;;;;;;4790724;29;20232;-57
2023/05/06 05:02:15;;;;;;;16.97;12.87;;;9.80;99.90;;;;;;4797315;29;20244;-57
2023/05/06 05:04:43;;;;;;;15.77;12.33;;;9.70;99.90;;;;;;4799014;29;20883;-57
2023/05/06 05:07:11;;;;;;;13.10;11.70;;;9.80;99.90;;;;;;4797084;29;20238;-56
2023/05/06 05:09:40;;;;;;;13.20;11.83;;;9.80;99.90;;;;;;4791027;29;20234;-57
2023/05/06 05:12:08;;;;;;;15.17;11.90;;;9.90;99.90;;;;;;4788329;29;20226;-57
2023/05/06 05:14:41;;;;;;;14.57;12.13;;;9.90;99.90;;;;;;4807292;29;20238;-57
2023/05/06 05:17:11;;;;;;;14.07;12.30;;;9.90;99.90;;;;;;4804780;29;20232;-56
2023/05/06 05:19:41;;;;;;;14.03;12.50;;;9.90;99.90;;;;;;4812864;29;20591;-55
2023/05/06 05:22:10;;;;;;;14.97;12.90;;;9.90;99.90;;;;;;4804903;29;20726;-57
2023/05/06 05:24:38;;;;;;;16.37;13.40;;;9.80;99.90;;;;;;4802220;29;20272;-57
2023/05/06 05:27:07;;;;;;;17.23;13.87;;;9.80;99.90;;;;;;4788118;30;20564;-57
2023/05/06 05:29:36;;;;;;;18.93;13.60;;;9.80;99.90;;;;;;4804088;29;20787;-56
2023/05/06 05:32:07;;;;;;;16.07;13.30;;;9.80;99.90;;;;;;4796307;29;20232;-56
2023/05/06 05:34:35;;;;;;;15.80;13.00;;;9.80;99.90;;;;;;4796089;29;20269;-56
2023/05/06 05:37:05;;;;;;;15.53;13.80;;;9.90;99.90;;;;;;4800829;29;20698;-57
2023/05/06 05:39:34;;;;;;;15.17;13.53;;;9.90;99.90;;;;;;4794278;29;20226;-57
2023/05/06 05:42:02;;;;;;;15.97;14.27;;;9.90;99.90;;;;;;4803665;29;20662;-56
2023/05/06 05:44:33;;;;;;;16.03;13.47;;;9.80;99.90;;;;;;4811894;29;20698;-57
2023/05/06 05:47:02;;;;;;;15.73;13.87;;;9.90;99.90;;;;;;4821542;29;20238;-58
2023/05/06 05:49:31;;;;;;;16.30;14.50;;;9.90;99.90;;;;;;4808598;29;20230;-57
2023/05/06 05:51:59;;;;;;;19.50;15.00;;;9.80;99.90;;;;;;4800806;29;20706;-57
2023/05/06 05:54:30;;;;;;;17.10;14.30;;;9.80;99.90;;;;;;4795682;29;20230;-55
2023/05/06 05:56:58;;;;;;;17.77;14.73;;;9.80;99.90;;;;;;4817268;29;20282;-57
2023/05/06 05:59:28;;;;;;;19.57;15.93;;;9.80;99.90;;;;;;4795948;29;20648;-57
2023/05/06 06:02:00;;;;;;;20.27;16.13;;;9.80;99.90;;;;;;4798620;29;20325;-56
2023/05/06 06:04:29;;;;;;;17.63;15.70;;;9.80;99.90;;;;;;4796295;29;20266;-57
2023/05/06 06:07:00;;;;;;;17.50;15.53;;;9.80;99.90;;;;;;4823458;29;20242;-57
2023/05/06 06:09:31;;;;;;;18.37;15.47;;;9.80;99.90;;;;;;4796230;29;20951;-57
2023/05/06 06:12:01;;;;;;;19.07;16.20;;;9.80;99.90;;;;;;4817496;29;20258;-57
2023/05/06 06:14:31;;;;;;;20.40;16.03;;;9.80;99.90;;;;;;4806071;29;20297;-57
2023/05/06 06:16:59;;;;;;;19.30;16.40;;;9.80;99.90;;;;;;4811905;29;20238;-57
2023/05/06 06:19:27;;;;;;;19.23;15.87;;;9.80;99.90;;;;;;4803809;29;20227;-58
2023/05/06 06:21:56;;;;;;;17.33;15.53;;;9.90;99.90;;;;;;4799897;29;20784;-57
2023/05/06 06:24:24;;;;;;;18.20;16.30;;;9.90;99.90;;;;;;4797078;29;20233;-57
2023/05/06 06:26:54;;;;;;;18.57;16.50;;;9.90;99.90;;;;;;4804031;29;20242;-56
2023/05/06 06:29:22;;;;;;;20.50;17.27;;;9.90;99.90;;;;;;4807559;29;20237;-57
2023/05/06 06:31:50;;;;;;;20.03;17.93;;;9.90;99.90;;;;;;4804971;29;20250;-57
2023/05/06 06:34:18;;;;;;;22.37;18.13;;;9.90;99.90;;;;;;4803904;29;20264;-57
2023/05/06 06:36:46;;;;;;;21.10;17.67;;;9.90;99.90;;;;;;4804981;29;20574;-57
2023/05/06 06:39:14;;;;;;;19.73;16.93;;;9.90;99.90;;;;;;4805244;29;20244;-57
2023/05/06 06:41:42;;;;;;;19.60;17.17;;;9.90;99.90;;;;;;4797511;29;20234;-57
2023/05/06 06:44:11;;;;;;;21.47;17.37;;;10.00;99.90;;;;;;4810860;29;20328;-57
2023/05/06 06:46:40;;;;;;;22.20;17.17;;;10.00;99.90;;;;;;4799085;29;20238;-56
2023/05/06 06:49:08;;;;;;;21.07;17.70;;;10.10;99.90;;;;;;4803680;29;20255;-57
2023/05/06 06:51:36;;;;;;;22.27;18.17;;;10.00;99.90;;;;;;4802408;29;20237;-57
2023/05/06 06:54:04;;;;;;;21.77;18.07;;;10.00;99.90;;;;;;4797016;29;20690;-58
2023/05/06 06:56:33;;;;;;;21.43;17.73;;;10.00;99.90;;;;;;4795774;29;20234;-56
2023/05/06 06:59:01;;;;;;;20.97;17.40;;;10.00;99.90;;;;;;4794840;29;20704;-57
2023/05/06 07:01:31;;;;;;;20.47;17.50;;;10.00;99.90;;;;;;4793611;29;20244;-57
2023/05/06 07:03:59;;;;;;;23.97;18.97;;;10.00;99.90;;;;;;4791700;29;20276;-57
2023/05/06 07:06:28;;;;;;;24.83;17.53;;;10.10;99.90;;;;;;4789303;29;20651;-54
2023/05/06 07:08:56;;;;;;;22.73;18.07;;;10.10;99.90;;;;;;4789459;29;21467;-57
2023/05/06 07:11:24;;;;;;;21.70;19.07;;;10.20;99.90;;;;;;4788970;29;20254;-54
2023/05/06 07:13:52;;;;;;;23.90;18.47;;;10.20;99.90;;;;;;4793301;29;20233;-56
2023/05/06 07:16:20;;;;;;;23.47;18.57;;;10.20;99.90;;;;;;4794464;29;20246;-57
2023/05/06 07:18:52;;;;;;;22.23;17.70;;;10.30;99.90;;;;;;4793241;29;20333;-55
2023/05/06 07:21:20;;;;;;;21.07;18.70;;;10.30;99.90;;;;;;4791872;29;21327;-57
2023/05/06 07:23:48;;;;;;;22.30;18.27;;;10.40;99.90;;;;;;4792705;29;20244;-51
2023/05/06 07:26:16;;;;;;;25.70;19.57;;;10.50;99.90;;;;;;4793086;29;20247;-57
2023/05/06 07:28:44;;;;;;;25.67;19.13;;;10.50;99.90;;;;;;4792395;29;20233;-53
2023/05/06 07:31:14;;;;;;;20.63;18.17;;;10.50;99.90;;;;;;4791275;29;20249;-51
2023/05/06 07:33:42;;;;;;;25.10;19.47;;;10.60;99.90;;;;;;4790917;29;20261;-53
2023/05/06 07:36:11;;;;;;;22.63;19.53;;;10.60;99.90;;;;;;4789720;29;20241;-55
2023/05/06 07:38:39;;;;;;;28.17;20.30;;;10.70;99.90;;;;;;4790698;29;20434;-49
2023/05/06 07:41:07;;;;;;;22.27;18.63;;;10.80;99.90;;;;;;4788331;29;20232;-52
2023/05/06 07:43:35;;;;;;;22.53;18.97;;;10.80;99.90;;;;;;4795375;29;20235;-56
2023/05/06 07:46:04;;;;;;;24.30;19.83;;;10.80;99.90;;;;;;4790142;29;20254;-53
2023/05/06 07:48:33;;;;;;;22.77;20.37;;;10.80;99.90;;;;;;4791306;29;20246;-53
2023/05/06 07:51:01;;;;;;;24.93;20.73;;;10.80;99.90;;;;;;4791225;29;20342;-56
2023/05/06 07:53:30;;;;;;;23.47;19.70;;;10.90;99.90;;;;;;4791579;29;20244;-54
2023/05/06 07:56:00;;;;;;;24.53;19.93;;;10.90;99.90;;;;;;4792410;29;20243;-51
2023/05/06 07:58:29;;;;;;;25.67;20.47;;;10.80;99.90;;;;;;4791907;29;20295;-50
2023/05/06 08:00:57;;;;;;;23.63;20.33;;;10.90;99.90;;;;;;4791278;29;20739;-54
2023/05/06 08:03:25;;;;;;;23.50;19.83;;;10.90;99.90;;;;;;4789620;29;20730;-54
2023/05/06 08:05:54;;;;;;;23.20;19.03;;;11.00;99.90;;;;;;4790045;29;20720;-55
2023/05/06 08:08:26;;;;;;;22.37;19.47;;;11.10;99.90;;;;;;4792813;29;20232;-57
2023/05/06 08:10:57;;;;;;;22.60;19.40;;;11.10;99.90;;;;;;4791891;29;20669;-55
2023/05/06 08:13:26;;;;;;;25.47;20.40;;;11.10;99.90;;;;;;4791474;29;20720;-54
2023/05/06 08:15:55;;;;;;;32.90;20.93;;;11.10;99.90;;;;;;4792952;29;20278;-56
2023/05/06 08:18:23;;;;;;;24.10;20.63;;;11.00;99.90;;;;;;4792345;29;20738;-52
2023/05/06 08:20:52;;;;;;;25.17;21.93;;;11.10;99.90;;;;;;4790167;29;20803;-51
2023/05/06 08:23:20;;;;;;;28.03;20.37;;;11.10;99.90;;;;;;4787738;29;20746;-57
2023/05/06 08:25:48;;;;;;;28.30;21.27;;;11.20;99.90;;;;;;4791419;29;20692;-57
2023/05/06 08:28:18;;;;;;;27.57;21.57;;;11.20;99.90;;;;;;4791962;29;20242;-57
2023/05/06 08:30:47;;;;;;;26.00;22.07;;;11.20;99.90;;;;;;4788623;29;20242;-57
2023/05/06 08:33:15;;;;;;;27.07;21.67;;;11.20;99.90;;;;;;4787503;29;20255;-56
2023/05/06 08:35:43;;;;;;;29.03;22.63;;;11.30;99.90;;;;;;4789237;29;20240;-48
2023/05/06 08:38:11;;;;;;;25.90;22.13;;;11.40;99.90;;;;;;4789157;29;20245;-55
2023/05/06 08:40:43;;;;;;;25.63;21.07;;;11.40;99.90;;;;;;4793619;29;20804;-52
2023/05/06 08:43:14;;;;;;;24.83;21.80;;;11.50;99.90;;;;;;4792343;29;20255;-50
2023/05/06 08:45:44;;;;;;;27.83;22.03;;;11.50;99.90;;;;;;4793771;29;20734;-57
2023/05/06 08:48:12;;;;;;;24.30;21.50;;;11.60;99.90;;;;;;4793989;29;20238;-53
2023/05/06 08:50:42;;;;;;;26.00;19.97;;;11.60;99.90;;;;;;4793354;29;20239;-56
2023/05/06 08:53:12;;;;;;;27.63;20.43;;;11.70;99.90;;;;;;4789331;29;20330;-56
2023/05/06 08:55:41;;;;;;;25.33;20.47;;;11.80;99.90;;;;;;4788782;29;20781;-49
2023/05/06 08:58:13;;;;;;;27.87;21.07;;;11.90;99.90;;;;;;4789150;29;20815;-54
2023/05/06 09:00:42;;;;;;;25.30;20.37;;;12.00;99.90;;;;;;4788800;29;20254;-50
2023/05/06 09:03:12;;;;;;;25.63;21.93;;;12.10;99.90;;;;;;4786938;29;20604;-50
2023/05/06 09:05:40;;;;;;;30.13;23.23;;;12.20;99.90;;;;;;4789736;29;20247;-54
2023/05/06 09:08:08;;;;;;;25.77;21.93;;;12.20;99.90;;;;;;4793940;29;20320;-53
2023/05/06 09:10:43;;;;;;;24.60;21.77;;;12.20;99.90;;;;;;4794333;29;20244;-56
2023/05/06 09:13:13;;;;;;;28.43;22.57;;;12.20;99.90;;;;;;4787899;29;20723;-55
2023/05/06 09:15:41;;;;;;;24.23;20.93;;;12.30;99.90;;;;;;4789325;29;20603;-52
2023/05/06 09:18:11;;;;;;;26.27;21.97;;;12.30;99.90;;;;;;4789640;29;20240;-51
2023/05/06 09:20:41;;;;;;;27.23;21.10;;;12.40;99.90;;;;;;4789368;29;20247;-55
2023/05/06 09:23:11;;;;;;;24.40;20.47;;;12.40;99.90;;;;;;4788241;29;20271;-51
2023/05/06 09:25:39;;;;;;;24.00;19.47;;;12.50;99.90;;;;;;4790524;29;20604;-54
2023/05/06 09:28:09;;;;;;;24.53;20.20;;;12.40;99.90;;;;;;4791190;29;20738;-55
2023/05/06 09:30:40;;;;;;;26.03;20.00;;;12.50;99.90;;;;;;4792947;29;20240;-50
2023/05/06 09:33:09;;;;;;;22.90;19.17;;;12.60;99.90;;;;;;4791905;29;20740;-51
2023/05/06 09:35:40;;;;;;;20.83;18.47;;;12.70;99.90;;;;;;4792410;29;20314;-49
2023/05/06 09:38:10;;;;;;;23.77;20.50;;;12.80;99.90;;;;;;4793411;29;20243;-52
2023/05/06 09:40:39;;;;;;;25.87;20.00;;;12.90;99.90;;;;;;4793629;29;20236;-55
2023/05/06 09:43:07;;;;;;;24.17;19.77;;;12.90;99.90;;;;;;4792097;29;20239;-56
2023/05/06 09:45:36;;;;;;;23.47;19.33;;;12.80;99.90;;;;;;4791610;29;20717;-57
2023/05/06 09:48:04;;;;;;;24.97;20.40;;;12.70;99.90;;;;;;4789989;29;20861;-54
2023/05/06 09:50:33;;;;;;;26.53;22.03;;;12.70;99.90;;;;;;4789491;29;20247;-54
2023/05/06 09:53:04;;;;;;;25.77;20.83;;;12.70;99.90;;;;;;4787538;29;20275;-56
2023/05/06 09:55:34;;;;;;;27.50;21.63;;;12.60;99.90;;;;;;4788229;29;20239;-56
2023/05/06 09:58:03;;;;;;;24.20;20.40;;;12.70;99.90;;;;;;4790708;29;20258;-57
2023/05/06 10:00:32;;;;;;;24.80;20.37;;;12.60;99.90;;;;;;4789032;29;20906;-54
2023/05/06 10:03:00;;;;;;;23.03;19.37;;;12.70;99.90;;;;;;4791504;29;20228;-53
2023/05/06 10:05:30;;;;;;;22.63;20.13;;;12.80;99.90;;;;;;4788908;29;20300;-52
2023/05/06 10:07:59;;;;;;;27.00;20.70;;;12.90;99.90;;;;;;4789274;29;20690;-57
2023/05/06 10:10:30;;;;;;;26.43;20.70;;;13.00;99.90;;;;;;4788898;29;20283;-55
2023/05/06 10:12:58;;;;;;;25.80;19.90;;;13.00;99.90;;;;;;4787160;29;20259;-54
2023/05/06 10:15:26;;;;;;;24.20;19.73;;;13.10;99.90;;;;;;4788203;29;20244;-55
2023/05/06 10:17:55;;;;;;;23.77;20.13;;;13.00;99.90;;;;;;4789217;29;20251;-56
2023/05/06 10:20:26;;;;;;;24.50;20.97;;;13.10;99.90;;;;;;4789511;29;20249;-57
2023/05/06 10:23:03;;;;;;;27.77;20.87;;;13.00;99.90;;;;;;4787725;29;20706;-57
2023/05/06 10:25:37;;;;;;;28.10;21.20;;;12.90;99.90;;;;;;4793103;29;20327;-56
2023/05/06 10:28:06;;;;;;;25.70;21.57;;;12.90;99.90;;;;;;4793350;29;20241;-53
2023/05/06 10:30:48;;;;;;;21.73;19.20;;;13.00;99.90;;;;;;4792225;29;20254;-57
2023/05/06 10:33:17;;;;;;;26.07;20.90;;;13.00;99.90;;;;;;4790882;29;20262;-56
2023/05/06 10:35:52;;;;;;;22.80;20.20;;;13.10;99.90;;;;;;4789060;29;20335;-55
2023/05/06 10:38:26;;;;;;;24.87;20.13;;;13.10;99.90;;;;;;4790039;29;20254;-54
2023/05/06 10:40:56;;;;;;;26.47;20.57;;;12.90;99.90;;;;;;4798497;29;20597;-57
2023/05/06 10:43:27;;;;;;;27.73;22.02;;;13.00;99.90;;;;;;4803988;29;20934;-60
2023/05/06 10:46:00;;;;;;;23.47;20.87;;;12.90;99.90;;;;;;4810069;29;20264;-58
2023/05/06 10:48:29;;;;;;;28.67;20.67;;;12.80;99.90;;;;;;4808370;29;20313;-56
2023/05/06 10:51:23;;;;;;;24.13;20.27;;;12.80;99.90;;;;;;4817962;29;20240;-59
2023/05/06 10:54:05;;;;;;;23.40;18.97;;;13.00;99.90;;;;;;4802856;29;20274;-58
2023/05/06 10:56:36;;;;;;;23.37;19.70;;;13.10;99.90;;;;;;4801138;29;20232;-58
2023/05/06 10:59:10;;;;;;;23.37;18.47;;;13.20;99.90;;;;;;4802763;29;20709;-59
2023/05/06 11:01:39;;;;;;;22.33;19.30;;;13.30;99.90;;;;;;4797684;29;20245;-58
2023/05/06 11:04:08;;;;;;;20.73;18.03;;;13.50;99.90;;;;;;4802213;29;20233;-58
2023/05/06 11:06:42;;;;;;;21.73;17.33;;;13.60;99.90;;;;;;4804165;29;20272;-58
2023/05/06 11:09:17;;;;;;;19.30;17.23;;;13.70;99.90;;;;;;4803971;29;20589;-59
2023/05/06 11:12:00;;;;;;;19.83;17.73;;;13.70;99.90;;;;;;4801284;29;20589;-59
2023/05/06 11:14:30;;;;;;;21.93;16.93;;;14.00;99.90;;;;;;4804842;29;20349;-57
2023/05/06 11:17:00;;;;;;;21.73;16.70;;;14.10;99.90;;;;;;4805381;29;20245;-59
2023/05/06 11:19:30;;;;;;;19.60;16.10;;;14.20;99.90;;;;;;4806740;29;20233;-58
2023/05/06 11:21:59;;;;;;;20.30;17.70;;;14.40;99.90;;;;;;4802222;29;20229;-59
2023/05/06 11:24:29;;;;;;;20.03;17.63;;;14.40;99.90;;;;;;4802313;29;20247;-57
2023/05/06 11:27:00;;;;;;;20.00;17.57;;;14.60;99.90;;;;;;4802558;29;20313;-59
2023/05/06 11:29:28;;;;;;;20.40;17.10;;;15.00;99.90;;;;;;4801920;29;20328;-58
2023/05/06 11:31:56;;;;;;;22.10;19.40;;;15.00;99.90;;;;;;4807510;29;20245;-59
2023/05/06 11:34:27;;;;;;;23.70;20.03;;;14.40;99.90;;;;;;4805667;29;20245;-57
2023/05/06 11:37:01;;;;;;;24.47;20.13;;;14.00;99.90;;;;;;4806942;29;20240;-58
2023/05/06 11:39:31;;;;;;;24.23;19.60;;;13.90;99.90;;;;;;4804130;29;20224;-58
2023/05/06 11:42:08;;;;;;;25.00;20.57;;;13.70;99.90;;;;;;4799583;29;20584;-58
2023/05/06 11:44:38;;;;;;;25.00;20.50;;;13.60;99.90;;;;;;4812491;29;20231;-58
2023/05/06 11:47:08;;;;;;;25.37;20.60;;;13.50;99.90;;;;;;4801065;29;20290;-58
2023/05/06 11:49:37;;;;;;;24.53;20.27;;;13.50;99.90;;;;;;4802664;29;20753;-58
2023/05/06 11:52:06;;;;;;;25.97;19.93;;;13.30;99.90;;;;;;4799145;29;20290;-58
2023/05/06 11:54:35;;;;;;;23.27;19.43;;;13.40;99.90;;;;;;4800093;29;20589;-58
2023/05/06 11:57:04;;;;;;;24.60;19.40;;;13.50;99.90;;;;;;4793913;29;20715;-58
2023/05/06 11:59:36;;;;;;;24.80;19.57;;;13.30;99.90;;;;;;4801079;29;20236;-58
2023/05/06 12:02:07;;;;;;;23.50;19.73;;;13.50;99.90;;;;;;4799444;29;20387;-58
2023/05/06 12:04:41;;;;;;;22.40;19.67;;;13.60;99.90;;;;;;4802082;29;20323;-58
2023/05/06 12:07:10;;;;;;;23.40;19.17;;;13.70;99.90;;;;;;4799046;29;20244;-58
2023/05/06 12:09:41;;;;;;;22.73;18.57;;;13.60;99.90;;;;;;4805068;29;20244;-58
2023/05/06 12:12:11;;;;;;;27.30;19.00;;;13.50;99.90;;;;;;4803872;29;20268;-58
2023/05/06 12:14:41;;;;;;;25.20;18.27;;;13.50;99.90;;;;;;4803962;29;20235;-58
2023/05/06 12:17:09;;;;;;;23.67;17.90;;;13.70;99.90;;;;;;4803011;29;20240;-58
2023/05/06 12:19:39;;;;;;;24.57;18.50;;;13.70;99.90;;;;;;4804587;29;20323;-57
2023/05/06 12:22:20;;;;;;;22.00;18.10;;;13.60;99.90;;;;;;4793962;29;20246;-58
2023/05/06 12:24:48;;;;;;;21.40;18.07;;;13.60;99.90;;;;;;4805278;29;20239;-58
2023/05/06 12:27:32;;;;;;;21.60;18.00;;;13.50;99.90;;;;;;4804601;29;20746;-58
2023/05/06 12:30:03;;;;;;;24.33;18.77;;;13.50;99.90;;;;;;4800919;29;20725;-58
2023/05/06 12:32:31;;;;;;;24.17;19.13;;;13.40;99.90;;;;;;4803751;29;20721;-58
2023/05/06 12:35:04;;;;;;;25.00;18.70;;;13.30;99.90;;;;;;4807035;29;20264;-58
2023/05/06 12:37:32;;;;;;;26.20;19.27;;;13.30;99.90;;;;;;4807176;29;20243;-58
2023/05/06 12:40:00;;;;;;;22.77;18.90;;;13.30;99.90;;;;;;4803572;29;20612;-58
2023/05/06 12:42:29;;;;;;;22.67;19.00;;;13.40;99.90;;;;;;4803339;29;20312;-58
2023/05/06 12:44:57;;;;;;;25.10;19.60;;;13.40;99.90;;;;;;4809032;29;20264;-58
2023/05/06 12:47:27;;;;;;;23.47;20.80;;;13.40;99.90;;;;;;4804206;29;20614;-58
2023/05/06 12:49:57;;;;;;;26.27;22.13;;;13.50;99.90;;;;;;4819312;29;20244;-58
2023/05/06 12:52:28;;;;;;;26.20;21.47;;;13.40;99.90;;;;;;4806741;29;20339;-58